sensor_id;sensor_type;location;lat;lon;timestamp;pressure;altitude;pressure_sealevel;temperature;humidity
68807;BME280;55800;54.272;18.558;2023-05-09T00:01:08;102228.94;;;5.70;49.68
68807;BME280;55800;54.272;18.558;2023-05-09T00:03:38;102223.63;;;5.64;49.46
68807;BME280;55800;54.272;18.558;2023-05-09T00:06:07;102226.22;;;5.56;48.83
68807;BME280;55800;54.272;18.558;2023-05-09T00:08:36;102220.88;;;5.50;47.15
68807;BME280;55800;54.272;18.558;2023-05-09T00:11:05;102214.66;;;5.43;48.13
68807;BME280;55800;54.272;18.558;2023-05-09T00:13:36;102216.44;;;5.40;49.08
68807;BME280;55800;54.272;18.558;2023-05-09T00:16:05;102211.09;;;5.37;49.47
68807;BME280;55800;54.272;18.558;2023-05-09T00:18:35;102212.00;;;5.36;51.34
68807;BME280;55800;54.272;18.558;2023-05-09T00:21:03;102205.78;;;5.29;50.17
68807;BME280;55800;54.272;18.558;2023-05-09T00:23:34;102212.84;;;5.29;49.63
68807;BME280;55800;54.272;18.558;2023-05-09T00:26:03;102215.50;;;5.26;51.10
68807;BME280;55800;54.272;18.558;2023-05-09T00:28:32;102214.59;;;5.25;51.21
68807;BME280;55800;54.272;18.558;2023-05-09T00:31:03;102215.44;;;5.20;47.92
68807;BME280;55800;54.272;18.558;2023-05-09T00:33:32;102208.31;;;5.10;50.45
68807;BME280;55800;54.272;18.558;2023-05-09T00:36:01;102208.31;;;5.07;49.28
68807;BME280;55800;54.272;18.558;2023-05-09T00:38:30;102215.34;;;5.03;52.49
68807;BME280;55800;54.272;18.558;2023-05-09T00:40:59;102211.78;;;5.00;52.34
68807;BME280;55800;54.272;18.558;2023-05-09T00:43:28;102214.41;;;4.95;51.56
68807;BME280;55800;54.272;18.558;2023-05-09T00:45:57;102217.03;;;4.91;51.59
68807;BME280;55800;54.272;18.558;2023-05-09T00:48:27;102213.50;;;4.92;52.04
68807;BME280;55800;54.272;18.558;2023-05-09T00:50:56;102202.84;;;4.84;51.02
68807;BME280;55800;54.272;18.558;2023-05-09T00:53:26;102200.22;;;4.90;51.25
68807;BME280;55800;54.272;18.558;2023-05-09T00:55:55;102203.75;;;4.83;51.97
68807;BME280;55800;54.272;18.558;2023-05-09T00:58:24;102206.34;;;4.79;49.70
68807;BME280;55800;54.272;18.558;2023-05-09T01:00:53;102197.50;;;4.77;49.50
68807;BME280;55800;54.272;18.558;2023-05-09T01:03:23;102197.50;;;4.77;52.27
68807;BME280;55800;54.272;18.558;2023-05-09T01:05:55;102199.25;;;4.78;51.44
68807;BME280;55800;54.272;18.558;2023-05-09T01:08:29;102201.03;;;4.74;51.78
68807;BME280;55800;54.272;18.558;2023-05-09T01:11:05;102207.22;;;4.74;49.14
68807;BME280;55800;54.272;18.558;2023-05-09T01:13:39;102200.97;;;4.66;50.02
68807;BME280;55800;54.272;18.558;2023-05-09T01:16:14;102194.81;;;4.72;51.19
68807;BME280;55800;54.272;18.558;2023-05-09T01:18:46;102187.72;;;4.68;50.50
68807;BME280;55800;54.272;18.558;2023-05-09T01:21:20;102194.78;;;4.66;52.33
68807;BME280;55800;54.272;18.558;2023-05-09T01:23:58;102200.91;;;4.56;52.87
68807;BME280;55800;54.272;18.558;2023-05-09T01:26:35;102195.69;;;4.69;52.30
68807;BME280;55800;54.272;18.558;2023-05-09T01:31:59;102193.81;;;4.56;52.73
68807;BME280;55800;54.272;18.558;2023-05-09T01:34:30;102196.47;;;4.55;51.73
68807;BME280;55800;54.272;18.558;2023-05-09T01:37:00;102196.38;;;4.44;50.45
68807;BME280;55800;54.272;18.558;2023-05-09T01:39:32;102188.38;;;4.38;49.79
68807;BME280;55800;54.272;18.558;2023-05-09T01:42:02;102193.69;;;4.40;48.86
68807;BME280;55800;54.272;18.558;2023-05-09T01:44:34;102191.88;;;4.34;48.59
68807;BME280;55800;54.272;18.558;2023-05-09T01:47:06;102188.34;;;4.32;53.04
68807;BME280;55800;54.272;18.558;2023-05-09T01:49:36;102190.09;;;4.30;51.13
68807;BME280;55800;54.272;18.558;2023-05-09T01:52:07;102186.50;;;4.25;52.28
68807;BME280;55800;54.272;18.558;2023-05-09T01:54:38;102191.88;;;4.37;49.51
68807;BME280;55800;54.272;18.558;2023-05-09T01:57:07;102192.75;;;4.35;47.98
68807;BME280;55800;54.272;18.558;2023-05-09T01:59:39;102189.09;;;4.22;49.77
68807;BME280;55800;54.272;18.558;2023-05-09T02:02:10;102190.00;;;4.21;49.17
68807;BME280;55800;54.272;18.558;2023-05-09T02:04:40;102195.28;;;4.21;46.92
68807;BME280;55800;54.272;18.558;2023-05-09T02:07:09;102194.41;;;4.22;46.55
68807;BME280;55800;54.272;18.558;2023-05-09T02:09:39;102188.22;;;4.20;46.29
68807;BME280;55800;54.272;18.558;2023-05-09T02:12:08;102189.09;;;4.18;46.25
68807;BME280;55800;54.272;18.558;2023-05-09T02:14:37;102197.00;;;4.16;45.84
68807;BME280;55800;54.272;18.558;2023-05-09T02:17:06;102197.00;;;4.13;49.89
68807;BME280;55800;54.272;18.558;2023-05-09T02:19:37;102197.03;;;4.19;47.53
68807;BME280;55800;54.272;18.558;2023-05-09T02:22:06;102198.00;;;4.26;46.59
68807;BME280;55800;54.272;18.558;2023-05-09T02:24:35;102197.84;;;4.09;47.82
68807;BME280;55800;54.272;18.558;2023-05-09T02:27:04;102192.53;;;4.09;46.10
68807;BME280;55800;54.272;18.558;2023-05-09T02:29:37;102203.09;;;4.08;45.80
68807;BME280;55800;54.272;18.558;2023-05-09T02:32:07;102196.91;;;4.04;46.27
68807;BME280;55800;54.272;18.558;2023-05-09T02:34:39;102196.00;;;4.02;45.55
68807;BME280;55800;54.272;18.558;2023-05-09T02:37:08;102199.50;;;4.01;45.54
68807;BME280;55800;54.272;18.558;2023-05-09T02:39:38;102198.63;;;4.01;45.54
68807;BME280;55800;54.272;18.558;2023-05-09T02:42:08;102204.72;;;3.93;47.50
68807;BME280;55800;54.272;18.558;2023-05-09T02:44:38;102206.47;;;3.90;47.55
68807;BME280;55800;54.272;18.558;2023-05-09T02:47:06;102203.81;;;3.91;46.23
68807;BME280;55800;54.272;18.558;2023-05-09T02:49:36;102200.28;;;3.91;45.79
68807;BME280;55800;54.272;18.558;2023-05-09T02:52:06;102200.28;;;3.91;46.79
68807;BME280;55800;54.272;18.558;2023-05-09T02:54:35;102202.03;;;3.89;50.08
68807;BME280;55800;54.272;18.558;2023-05-09T02:57:04;102208.28;;;3.94;47.99
68807;BME280;55800;54.272;18.558;2023-05-09T02:59:33;102204.72;;;3.93;47.10
68807;BME280;55800;54.272;18.558;2023-05-09T03:02:02;102205.47;;;3.82;46.82
68807;BME280;55800;54.272;18.558;2023-05-09T03:04:32;102198.41;;;3.79;48.15
68807;BME280;55800;54.272;18.558;2023-05-09T03:07:00;102206.31;;;3.78;46.59
68807;BME280;55800;54.272;18.558;2023-05-09T03:09:34;102206.31;;;3.78;46.38
68807;BME280;55800;54.272;18.558;2023-05-09T03:12:04;102201.00;;;3.75;46.30
68807;BME280;55800;54.272;18.558;2023-05-09T03:14:34;102207.16;;;3.74;46.15
68807;BME280;55800;54.272;18.558;2023-05-09T03:17:03;102200.06;;;3.71;46.25
68807;BME280;55800;54.272;18.558;2023-05-09T03:19:35;102206.25;;;3.70;45.78
68807;BME280;55800;54.272;18.558;2023-05-09T03:22:04;102204.50;;;3.71;49.05
68807;BME280;55800;54.272;18.558;2023-05-09T03:24:41;102214.19;;;3.72;49.47
68807;BME280;55800;54.272;18.558;2023-05-09T03:27:10;102214.16;;;3.69;49.26
68807;BME280;55800;54.272;18.558;2023-05-09T03:29:39;102210.56;;;3.64;49.63
68807;BME280;55800;54.272;18.558;2023-05-09T03:32:08;102214.97;;;3.65;51.61
68807;BME280;55800;54.272;18.558;2023-05-09T03:34:40;102212.53;;;3.81;53.28
68807;BME280;55800;54.272;18.558;2023-05-09T03:37:09;102221.56;;;4.00;53.86
68807;BME280;55800;54.272;18.558;2023-05-09T03:39:42;102216.28;;;4.03;55.41
68807;BME280;55800;54.272;18.558;2023-05-09T03:42:10;102219.88;;;4.08;53.33
68807;BME280;55800;54.272;18.558;2023-05-09T03:44:41;102220.88;;;4.21;50.08
68807;BME280;55800;54.272;18.558;2023-05-09T03:47:10;102227.22;;;4.36;49.13
68807;BME280;55800;54.272;18.558;2023-05-09T03:49:40;102214.97;;;4.47;48.40
68807;BME280;55800;54.272;18.558;2023-05-09T03:52:11;102227.34;;;4.54;48.31
68807;BME280;55800;54.272;18.558;2023-05-09T03:54:42;102229.09;;;4.49;48.82
68807;BME280;55800;54.272;18.558;2023-05-09T03:57:11;102232.66;;;4.54;48.81
68807;BME280;55800;54.272;18.558;2023-05-09T03:59:40;102230.13;;;4.69;48.12
68807;BME280;55800;54.272;18.558;2023-05-09T04:02:10;102225.81;;;4.81;48.27
68807;BME280;55800;54.272;18.558;2023-05-09T04:04:40;102230.25;;;4.86;49.19
68807;BME280;55800;54.272;18.558;2023-05-09T04:07:09;102228.53;;;4.90;48.42
68807;BME280;55800;54.272;18.558;2023-05-09T04:09:38;102237.41;;;4.99;51.33
68807;BME280;55800;54.272;18.558;2023-05-09T04:12:10;102242.78;;;5.07;51.69
68807;BME280;55800;54.272;18.558;2023-05-09T04:14:39;102241.91;;;5.12;54.46
68807;BME280;55800;54.272;18.558;2023-05-09T04:17:09;102244.59;;;5.20;55.50
68807;BME280;55800;54.272;18.558;2023-05-09T04:19:38;102248.19;;;5.31;55.31
68807;BME280;55800;54.272;18.558;2023-05-09T04:22:07;102244.72;;;5.39;53.98
68807;BME280;55800;54.272;18.558;2023-05-09T04:24:36;102243.91;;;5.51;57.14
68807;BME280;55800;54.272;18.558;2023-05-09T04:27:05;102252.78;;;5.65;58.02
68807;BME280;55800;54.272;18.558;2023-05-09T04:29:37;102243.97;;;5.71;56.73
68807;BME280;55800;54.272;18.558;2023-05-09T04:32:06;102240.47;;;5.82;55.63
68807;BME280;55800;54.272;18.558;2023-05-09T04:34:35;102241.44;;;5.93;57.08
68807;BME280;55800;54.272;18.558;2023-05-09T04:37:11;102240.56;;;6.03;57.15
68807;BME280;55800;54.272;18.558;2023-05-09T04:39:41;102244.13;;;6.11;58.14
68807;BME280;55800;54.272;18.558;2023-05-09T04:42:17;102242.38;;;6.22;58.37
68807;BME280;55800;54.272;18.558;2023-05-09T04:44:48;102241.50;;;6.34;55.84
68807;BME280;55800;54.272;18.558;2023-05-09T04:47:19;102244.19;;;6.45;57.06
68807;BME280;55800;54.272;18.558;2023-05-09T04:49:49;102239.75;;;6.56;57.86
68807;BME280;55800;54.272;18.558;2023-05-09T04:52:18;102244.22;;;6.66;55.24
68807;BME280;55800;54.272;18.558;2023-05-09T04:54:48;102238.88;;;6.78;56.79
68807;BME280;55800;54.272;18.558;2023-05-09T04:57:20;102252.13;;;6.91;54.28
68807;BME280;55800;54.272;18.558;2023-05-09T04:59:56;102255.69;;;7.05;56.57
68807;BME280;55800;54.272;18.558;2023-05-09T05:02:25;102245.91;;;7.15;56.90
68807;BME280;55800;54.272;18.558;2023-05-09T05:04:55;102245.91;;;7.27;55.66
68807;BME280;55800;54.272;18.558;2023-05-09T05:07:40;102242.28;;;7.40;56.03
68807;BME280;55800;54.272;18.558;2023-05-09T05:10:12;102238.72;;;7.52;54.25
68807;BME280;55800;54.272;18.558;2023-05-09T05:12:44;102240.41;;;7.68;53.54
68807;BME280;55800;54.272;18.558;2023-05-09T05:15:16;102241.25;;;7.79;52.13
68807;BME280;55800;54.272;18.558;2023-05-09T05:17:47;102246.53;;;7.93;54.33
68807;BME280;55800;54.272;18.558;2023-05-09T05:20:20;102237.56;;;8.04;53.83
68807;BME280;55800;54.272;18.558;2023-05-09T05:22:49;102250.78;;;8.19;55.22
68807;BME280;55800;54.272;18.558;2023-05-09T05:25:19;102245.44;;;8.33;55.12
68807;BME280;55800;54.272;18.558;2023-05-09T05:27:50;102233.78;;;8.46;52.11
68807;BME280;55800;54.272;18.558;2023-05-09T05:30:21;102234.56;;;8.60;51.56
68807;BME280;55800;54.272;18.558;2023-05-09T05:32:50;102235.28;;;8.77;53.08
68807;BME280;55800;54.272;18.558;2023-05-09T05:35:21;102239.63;;;8.90;51.07
68807;BME280;55800;54.272;18.558;2023-05-09T05:37:52;102235.03;;;9.04;50.43
68807;BME280;55800;54.272;18.558;2023-05-09T05:40:22;102225.97;;;9.19;50.07
68807;BME280;55800;54.272;18.558;2023-05-09T05:42:52;102238.28;;;9.33;50.09
68807;BME280;55800;54.272;18.558;2023-05-09T05:45:24;102234.53;;;9.48;49.96
68807;BME280;55800;54.272;18.558;2023-05-09T05:47:55;102233.50;;;9.63;49.95
68807;BME280;55800;54.272;18.558;2023-05-09T05:50:25;102235.06;;;9.79;49.70
68807;BME280;55800;54.272;18.558;2023-05-09T05:52:54;102233.97;;;9.93;49.73
68807;BME280;55800;54.272;18.558;2023-05-09T05:55:23;102238.22;;;10.11;50.57
68807;BME280;55800;54.272;18.558;2023-05-09T05:57:52;102234.47;;;10.24;51.34
68807;BME280;55800;54.272;18.558;2023-05-09T06:00:21;102235.09;;;10.41;49.82
68807;BME280;55800;54.272;18.558;2023-05-09T06:02:59;102234.81;;;10.58;50.81
68807;BME280;55800;54.272;18.558;2023-05-09T06:05:37;102236.22;;;10.80;50.83
68807;BME280;55800;54.272;18.558;2023-05-09T06:08:10;102233.25;;;10.96;50.91
68807;BME280;55800;54.272;18.558;2023-05-09T06:10:39;102231.13;;;11.14;50.52
68807;BME280;55800;54.272;18.558;2023-05-09T06:13:08;102221.97;;;11.27;49.94
68807;BME280;55800;54.272;18.558;2023-05-09T06:15:40;102217.97;;;11.47;50.64
68807;BME280;55800;54.272;18.558;2023-05-09T06:18:11;102215.84;;;11.66;51.26
68807;BME280;55800;54.272;18.558;2023-05-09T06:20:40;102222.66;;;11.82;50.67
68807;BME280;55800;54.272;18.558;2023-05-09T06:23:09;102217.75;;;12.01;51.01
68807;BME280;55800;54.272;18.558;2023-05-09T06:25:38;102224.47;;;12.21;50.82
68807;BME280;55800;54.272;18.558;2023-05-09T06:28:07;102217.81;;;12.37;50.19
68807;BME280;55800;54.272;18.558;2023-05-09T06:30:36;102213.81;;;12.53;49.63
68807;BME280;55800;54.272;18.558;2023-05-09T06:33:05;102206.22;;;12.71;50.04
68807;BME280;55800;54.272;18.558;2023-05-09T06:35:36;102211.16;;;12.89;50.08
68807;BME280;55800;54.272;18.558;2023-05-09T06:38:05;102208.06;;;13.04;49.01
68807;BME280;55800;54.272;18.558;2023-05-09T06:40:34;102223.88;;;13.16;48.52
68807;BME280;55800;54.272;18.558;2023-05-09T06:43:03;102216.22;;;13.33;48.93
68807;BME280;55800;54.272;18.558;2023-05-09T06:45:32;102209.59;;;13.46;48.74
68807;BME280;55800;54.272;18.558;2023-05-09T06:48:02;102203.81;;;13.60;48.46
68807;BME280;55800;54.272;18.558;2023-05-09T06:50:31;102206.03;;;13.75;48.13
68807;BME280;55800;54.272;18.558;2023-05-09T06:53:01;102212.81;;;13.88;48.04
68807;BME280;55800;54.272;18.558;2023-05-09T06:55:30;102209.75;;;14.00;46.95
68807;BME280;55800;54.272;18.558;2023-05-09T06:57:59;102205.81;;;14.12;46.67
68807;BME280;55800;54.272;18.558;2023-05-09T07:00:28;102212.66;;;14.22;46.42
68807;BME280;55800;54.272;18.558;2023-05-09T07:02:57;102214.97;;;14.34;46.50
68807;BME280;55800;54.272;18.558;2023-05-09T07:05:28;102210.19;;;14.43;45.17
68807;BME280;55800;54.272;18.558;2023-05-09T07:07:56;102211.72;;;14.52;45.62
68807;BME280;55800;54.272;18.558;2023-05-09T07:10:27;102200.66;;;14.61;44.59
68807;BME280;55800;54.272;18.558;2023-05-09T07:12:56;102205.69;;;14.70;43.95
68807;BME280;55800;54.272;18.558;2023-05-09T07:15:25;102207.19;;;14.78;44.57
68807;BME280;55800;54.272;18.558;2023-05-09T07:18:08;102202.41;;;14.88;43.93
68807;BME280;55800;54.272;18.558;2023-05-09T07:20:38;102192.22;;;14.96;44.37
68807;BME280;55800;54.272;18.558;2023-05-09T07:23:07;102191.78;;;15.08;44.57
68807;BME280;55800;54.272;18.558;2023-05-09T07:25:38;102193.25;;;15.18;44.25
68807;BME280;55800;54.272;18.558;2023-05-09T07:28:07;102199.91;;;15.31;43.58
68807;BME280;55800;54.272;18.558;2023-05-09T07:30:38;102193.28;;;15.41;43.47
68807;BME280;55800;54.272;18.558;2023-05-09T07:33:07;102182.31;;;15.47;43.30
68807;BME280;55800;54.272;18.558;2023-05-09T07:35:36;102182.00;;;15.55;43.57
68807;BME280;55800;54.272;18.558;2023-05-09T07:38:05;102187.13;;;15.63;42.77
68807;BME280;55800;54.272;18.558;2023-05-09T07:40:34;102185.00;;;15.71;42.56
68807;BME280;55800;54.272;18.558;2023-05-09T07:43:06;102180.28;;;15.76;42.39
68807;BME280;55800;54.272;18.558;2023-05-09T07:45:36;102181.00;;;15.81;42.40
68807;BME280;55800;54.272;18.558;2023-05-09T07:48:05;102177.91;;;15.91;43.11
68807;BME280;55800;54.272;18.558;2023-05-09T07:50:34;102181.13;;;16.01;42.35
68807;BME280;55800;54.272;18.558;2023-05-09T07:53:03;102171.81;;;16.08;42.02
68807;BME280;55800;54.272;18.558;2023-05-09T07:55:33;102175.97;;;16.16;42.30
68807;BME280;55800;54.272;18.558;2023-05-09T07:58:01;102171.22;;;16.23;42.43
68807;BME280;55800;54.272;18.558;2023-05-09T08:00:32;102170.84;;;16.32;41.90
68807;BME280;55800;54.272;18.558;2023-05-09T08:03:01;102166.00;;;16.40;41.52
68807;BME280;55800;54.272;18.558;2023-05-09T08:05:30;102166.56;;;16.48;41.58
68807;BME280;55800;54.272;18.558;2023-05-09T08:07:59;102168.09;;;16.55;41.57
68807;BME280;55800;54.272;18.558;2023-05-09T08:10:28;102159.75;;;16.61;40.08
68807;BME280;55800;54.272;18.558;2023-05-09T08:12:58;102163.06;;;16.68;40.69
68807;BME280;55800;54.272;18.558;2023-05-09T08:15:28;102166.38;;;16.74;40.13
68807;BME280;55800;54.272;18.558;2023-05-09T08:17:59;102163.41;;;16.80;39.45
68807;BME280;55800;54.272;18.558;2023-05-09T08:20:28;102156.13;;;16.82;39.89
68807;BME280;55800;54.272;18.558;2023-05-09T08:22:58;102146.88;;;16.88;40.30
68807;BME280;55800;54.272;18.558;2023-05-09T08:25:27;102143.75;;;16.97;40.35
68807;BME280;55800;54.272;18.558;2023-05-09T08:27:56;102145.25;;;17.04;40.18
68807;BME280;55800;54.272;18.558;2023-05-09T08:30:25;102137.84;;;17.09;39.98
68807;BME280;55800;54.272;18.558;2023-05-09T08:32:55;102145.78;;;17.12;38.22
68807;BME280;55800;54.272;18.558;2023-05-09T08:35:26;102140.28;;;17.13;38.51
68807;BME280;55800;54.272;18.558;2023-05-09T08:37:55;102138.44;;;17.15;38.99
68807;BME280;55800;54.272;18.558;2023-05-09T08:40:24;102139.25;;;17.17;37.67
68807;BME280;55800;54.272;18.558;2023-05-09T08:42:53;102135.38;;;17.23;37.80
68807;BME280;55800;54.272;18.558;2023-05-09T08:45:25;102123.66;;;17.23;37.44
68807;BME280;55800;54.272;18.558;2023-05-09T08:47:54;102130.84;;;17.24;36.74
68807;BME280;55800;54.272;18.558;2023-05-09T08:50:24;102121.84;;;17.23;37.82
68807;BME280;55800;54.272;18.558;2023-05-09T08:52:54;102127.78;;;17.31;38.28
68807;BME280;55800;54.272;18.558;2023-05-09T08:55:24;102115.97;;;17.34;37.82
68807;BME280;55800;54.272;18.558;2023-05-09T08:57:54;102120.44;;;17.35;37.41
68807;BME280;55800;54.272;18.558;2023-05-09T09:00:23;102118.28;;;17.41;37.92
68807;BME280;55800;54.272;18.558;2023-05-09T09:02:53;102122.69;;;17.44;37.54
68807;BME280;55800;54.272;18.558;2023-05-09T09:05:23;102126.94;;;17.49;36.98
68807;BME280;55800;54.272;18.558;2023-05-09T09:08:09;102116.91;;;17.53;36.91
68807;BME280;55800;54.272;18.558;2023-05-09T09:10:40;102115.78;;;17.57;37.59
68807;BME280;55800;54.272;18.558;2023-05-09T09:13:09;102113.97;;;17.57;36.06
68807;BME280;55800;54.272;18.558;2023-05-09T09:15:42;102114.84;;;17.58;36.64
68807;BME280;55800;54.272;18.558;2023-05-09T09:18:11;102111.06;;;17.62;36.13
68807;BME280;55800;54.272;18.558;2023-05-09T09:20:44;102104.53;;;17.66;35.80
68807;BME280;55800;54.272;18.558;2023-05-09T09:23:16;102115.19;;;17.69;36.37
68807;BME280;55800;54.272;18.558;2023-05-09T09:25:46;102114.28;;;17.70;36.20
68807;BME280;55800;54.272;18.558;2023-05-09T09:28:15;102110.59;;;17.71;35.32
68807;BME280;55800;54.272;18.558;2023-05-09T09:30:46;102106.75;;;17.76;35.90
68807;BME280;55800;54.272;18.558;2023-05-09T09:33:18;102115.56;;;17.80;35.33
68807;BME280;55800;54.272;18.558;2023-05-09T09:35:49;102108.25;;;17.82;35.57
68807;BME280;55800;54.272;18.558;2023-05-09T09:38:20;102107.25;;;17.84;35.88
68807;BME280;55800;54.272;18.558;2023-05-09T09:40:53;102096.28;;;17.87;36.32
68807;BME280;55800;54.272;18.558;2023-05-09T09:43:26;102094.28;;;17.91;36.42
68807;BME280;55800;54.272;18.558;2023-05-09T09:45:55;102095.97;;;17.93;35.79
68807;BME280;55800;54.272;18.558;2023-05-09T09:48:25;102082.22;;;17.98;36.17
68807;BME280;55800;54.272;18.558;2023-05-09T09:50:54;102088.34;;;18.02;36.26
68807;BME280;55800;54.272;18.558;2023-05-09T09:53:26;102083.50;;;18.08;36.12
68807;BME280;55800;54.272;18.558;2023-05-09T09:55:57;102079.69;;;18.12;35.88
68807;BME280;55800;54.272;18.558;2023-05-09T09:58:26;102079.47;;;18.17;36.62
68807;BME280;55800;54.272;18.558;2023-05-09T10:01:05;102075.75;;;18.19;36.01
68807;BME280;55800;54.272;18.558;2023-05-09T10:03:35;102077.16;;;18.26;36.19
68807;BME280;55800;54.272;18.558;2023-05-09T10:06:04;102072.53;;;18.28;35.50
68807;BME280;55800;54.272;18.558;2023-05-09T10:08:38;102069.69;;;18.31;35.46
68807;BME280;55800;54.272;18.558;2023-05-09T10:11:07;102062.13;;;18.38;35.94
68807;BME280;55800;54.272;18.558;2023-05-09T10:13:36;102069.06;;;18.43;35.26
68807;BME280;55800;54.272;18.558;2023-05-09T10:16:06;102067.31;;;18.42;35.52
68807;BME280;55800;54.272;18.558;2023-05-09T10:18:36;102064.94;;;18.36;34.08
68807;BME280;55800;54.272;18.558;2023-05-09T10:21:07;102053.03;;;18.39;34.63
68807;BME280;55800;54.272;18.558;2023-05-09T10:23:40;102045.50;;;18.45;34.55
68807;BME280;55800;54.272;18.558;2023-05-09T10:26:13;102048.72;;;18.53;35.00
68807;BME280;55800;54.272;18.558;2023-05-09T10:28:44;102052.03;;;18.58;34.55
68807;BME280;55800;54.272;18.558;2023-05-09T10:31:14;102040.31;;;18.58;34.42
68807;BME280;55800;54.272;18.558;2023-05-09T10:33:45;102037.22;;;18.65;34.63
68807;BME280;55800;54.272;18.558;2023-05-09T10:36:16;102026.84;;;18.74;34.34
68807;BME280;55800;54.272;18.558;2023-05-09T10:38:48;102018.56;;;18.77;33.25
68807;BME280;55800;54.272;18.558;2023-05-09T10:41:18;102028.19;;;18.82;33.51
68807;BME280;55800;54.272;18.558;2023-05-09T10:43:48;102030.75;;;18.85;33.80
68807;BME280;55800;54.272;18.558;2023-05-09T10:46:17;102030.41;;;18.91;33.17
68807;BME280;55800;54.272;18.558;2023-05-09T10:48:47;102017.41;;;18.98;33.82
68807;BME280;55800;54.272;18.558;2023-05-09T10:51:16;102015.50;;;19.00;33.82
68807;BME280;55800;54.272;18.558;2023-05-09T10:53:46;102015.56;;;18.98;33.12
68807;BME280;55800;54.272;18.558;2023-05-09T10:56:24;102018.91;;;19.03;33.03
68807;BME280;55800;54.272;18.558;2023-05-09T10:58:53;102018.47;;;19.11;34.29
68807;BME280;55800;54.272;18.558;2023-05-09T11:01:29;102004.66;;;19.15;34.06
68807;BME280;55800;54.272;18.558;2023-05-09T11:04:02;102007.31;;;19.17;34.13
68807;BME280;55800;54.272;18.558;2023-05-09T11:06:43;102004.75;;;19.14;31.99
68807;BME280;55800;54.272;18.558;2023-05-09T11:09:27;101999.44;;;19.12;32.62
68807;BME280;55800;54.272;18.558;2023-05-09T11:11:59;101987.19;;;19.21;32.89
68807;BME280;55800;54.272;18.558;2023-05-09T11:14:32;101988.75;;;19.25;33.46
68807;BME280;55800;54.272;18.558;2023-05-09T11:17:02;101980.72;;;19.23;32.57
68807;BME280;55800;54.272;18.558;2023-05-09T11:22:22;101974.38;;;19.40;33.06
68807;BME280;55800;54.272;18.558;2023-05-09T11:24:58;101969.91;;;19.39;32.86
68807;BME280;55800;54.272;18.558;2023-05-09T11:27:35;101971.31;;;19.46;32.69
68807;BME280;55800;54.272;18.558;2023-05-09T11:30:06;101971.56;;;19.57;32.91
68807;BME280;55800;54.272;18.558;2023-05-09T11:32:40;101961.50;;;19.59;31.91
68807;BME280;55800;54.272;18.558;2023-05-09T11:35:10;101966.56;;;19.65;32.72
68807;BME280;55800;54.272;18.558;2023-05-09T11:37:46;101965.53;;;19.68;31.64
68807;BME280;55800;54.272;18.558;2023-05-09T11:40:15;101961.94;;;19.67;31.58
68807;BME280;55800;54.272;18.558;2023-05-09T11:42:46;101952.47;;;19.74;32.02
68807;BME280;55800;54.272;18.558;2023-05-09T11:45:16;101954.41;;;19.72;31.55
68807;BME280;55800;54.272;18.558;2023-05-09T11:47:45;101950.44;;;19.78;32.19
68807;BME280;55800;54.272;18.558;2023-05-09T11:50:15;101939.38;;;19.81;31.48
68807;BME280;55800;54.272;18.558;2023-05-09T11:52:44;101943.59;;;19.86;30.73
68807;BME280;55800;54.272;18.558;2023-05-09T11:55:15;101938.75;;;19.91;30.63
68807;BME280;55800;54.272;18.558;2023-05-09T11:57:48;101932.09;;;19.97;31.83
68807;BME280;55800;54.272;18.558;2023-05-09T12:00:18;101932.00;;;19.98;31.62
68807;BME280;55800;54.272;18.558;2023-05-09T12:02:48;101925.41;;;20.02;31.01
68807;BME280;55800;54.272;18.558;2023-05-09T12:05:19;101917.97;;;20.06;30.64
68807;BME280;55800;54.272;18.558;2023-05-09T12:07:48;101911.75;;;20.04;31.40
68807;BME280;55800;54.272;18.558;2023-05-09T12:10:19;101910.59;;;20.08;30.80
68807;BME280;55800;54.272;18.558;2023-05-09T12:12:51;101919.03;;;20.03;30.56
68807;BME280;55800;54.272;18.558;2023-05-09T12:15:22;101899.25;;;20.01;30.17
68807;BME280;55800;54.272;18.558;2023-05-09T12:18:01;101900.97;;;20.02;31.66
68807;BME280;55800;54.272;18.558;2023-05-09T12:20:40;101906.81;;;20.10;31.63
68807;BME280;55800;54.272;18.558;2023-05-09T12:23:10;101907.41;;;20.15;31.16
68807;BME280;55800;54.272;18.558;2023-05-09T12:25:46;101908.97;;;20.19;31.69
68807;BME280;55800;54.272;18.558;2023-05-09T12:28:17;101904.75;;;20.30;30.84
68807;BME280;55800;54.272;18.558;2023-05-09T12:30:45;101903.22;;;20.40;30.62
68807;BME280;55800;54.272;18.558;2023-05-09T12:33:15;101904.00;;;20.42;31.26
68807;BME280;55800;54.272;18.558;2023-05-09T12:35:44;101900.13;;;20.46;30.95
68807;BME280;55800;54.272;18.558;2023-05-09T12:38:14;101894.28;;;20.52;31.45
68807;BME280;55800;54.272;18.558;2023-05-09T12:40:48;101886.25;;;20.50;30.47
68807;BME280;55800;54.272;18.558;2023-05-09T12:43:19;101875.38;;;20.50;30.33
68807;BME280;55800;54.272;18.558;2023-05-09T12:45:50;101842.97;;;20.47;29.47
68807;BME280;55800;54.272;18.558;2023-05-09T12:48:21;101877.81;;;20.55;30.10
68807;BME280;55800;54.272;18.558;2023-05-09T12:50:50;101858.94;;;20.66;30.52
68807;BME280;55800;54.272;18.558;2023-05-09T12:53:22;101865.94;;;20.70;30.25
68807;BME280;55800;54.272;18.558;2023-05-09T12:55:55;101862.84;;;20.76;30.25
68807;BME280;55800;54.272;18.558;2023-05-09T12:58:29;101850.88;;;20.78;30.26
68807;BME280;55800;54.272;18.558;2023-05-09T13:00:58;101850.22;;;20.75;30.17
68807;BME280;55800;54.272;18.558;2023-05-09T13:03:28;101849.75;;;20.82;30.71
68807;BME280;55800;54.272;18.558;2023-05-09T13:06:04;101852.81;;;20.90;30.99
68807;BME280;55800;54.272;18.558;2023-05-09T13:08:34;101837.16;;;20.94;29.61